Time;durP1;ratioP1;P1;durP2;ratioP2;P2;SDS_P1;SDS_P2;PMS_P1;PMS_P2;Temp;Humidity;BMP_temperature;BMP_pressure;BME280_temperature;BME280_humidity;BME280_pressure;Samples;Min_cycle;Max_cycle;Signal;HPM_P1;HPM_P2
2021/06/20 00:00:20;;;;;;;10.45;6.55;;;;;;;29.20;41.05;98980.19;2246322;39;20031;-83
2021/06/20 00:01:52;;;;;;;8.13;5.65;;;;;;;28.98;41.79;98981.59;2251304;39;20031;-82
2021/06/20 00:03:24;;;;;;;8.15;6.00;;;;;;;28.82;42.40;98982.84;2252318;39;20062;-81
2021/06/20 00:04:55;;;;;;;10.98;5.60;;;;;;;28.75;42.27;98989.53;2251113;39;20035;-81
2021/06/20 00:06:30;;;;;;;8.98;5.40;;;;;;;28.76;41.95;98977.41;2251264;39;20027;-80
2021/06/20 00:08:05;;;;;;;10.25;5.75;;;;;;;28.81;41.39;98990.28;2244599;39;20032;-81
2021/06/20 00:09:36;;;;;;;8.82;5.30;;;;;;;28.87;41.13;98974.56;2244347;39;20031;-81
2021/06/20 00:11:08;;;;;;;10.07;5.30;;;;;;;28.86;41.15;98978.41;2243520;39;20031;-80
2021/06/20 00:12:40;;;;;;;8.90;5.32;;;;;;;28.84;41.25;98983.38;2244147;39;20024;-82
2021/06/20 00:14:12;;;;;;;10.25;5.85;;;;;;;28.81;41.35;98994.97;2250563;39;20399;-82
2021/06/20 00:15:46;;;;;;;10.23;5.93;;;;;;;28.73;41.90;98983.50;2251781;39;20025;-79
2021/06/20 00:17:18;;;;;;;8.75;5.35;;;;;;;28.61;42.94;98988.56;2247787;39;20031;-79
2021/06/20 00:18:50;;;;;;;8.00;5.07;;;;;;;28.46;43.52;98984.84;2248543;39;20020;-80
2021/06/20 00:20:26;;;;;;;13.95;5.75;;;;;;;28.33;43.49;98985.53;2246188;39;20027;-80
2021/06/20 00:21:58;;;;;;;9.15;5.72;;;;;;;28.24;43.89;98976.25;2248976;39;20031;-79
2021/06/20 00:23:30;;;;;;;11.38;6.00;;;;;;;28.18;44.06;98983.72;2245500;39;20043;-79
2021/06/20 00:25:03;;;;;;;10.40;5.60;;;;;;;28.12;44.19;98973.88;2245746;39;20035;-79
2021/06/20 00:26:35;;;;;;;11.43;7.15;;;;;;;28.07;44.13;98972.00;2246584;39;20023;-79
2021/06/20 00:28:08;;;;;;;10.38;5.55;;;;;;;28.10;44.21;98974.16;2247982;39;20030;-80
2021/06/20 00:29:40;;;;;;;10.20;5.90;;;;;;;28.11;44.02;98974.97;2247882;39;20019;-79
2021/06/20 00:31:14;;;;;;;13.63;5.53;;;;;;;28.08;43.98;98976.38;2247594;39;20079;-81
2021/06/20 00:32:48;;;;;;;8.80;5.45;;;;;;;28.07;43.93;98982.97;2248726;39;20038;-80
2021/06/20 00:34:21;;;;;;;14.15;6.43;;;;;;;28.03;44.24;98987.38;2246391;39;20018;-81
2021/06/20 00:35:52;;;;;;;9.00;6.25;;;;;;;28.02;44.15;98999.47;2248695;39;20042;-81
2021/06/20 00:37:23;;;;;;;8.07;5.25;;;;;;;28.03;44.10;98999.19;2248683;39;20196;-81
2021/06/20 00:38:55;;;;;;;10.65;5.78;;;;;;;28.02;44.29;99004.97;2247933;39;20047;-79
2021/06/20 00:40:27;;;;;;;8.70;5.78;;;;;;;27.98;44.45;99012.13;2247440;39;20030;-80
2021/06/20 00:41:58;;;;;;;9.15;5.63;;;;;;;27.96;44.56;99019.84;2244476;39;20032;-82
2021/06/20 00:43:30;;;;;;;8.25;5.75;;;;;;;27.95;44.55;99023.69;2247789;39;20244;-81
2021/06/20 00:45:01;;;;;;;11.00;6.57;;;;;;;27.88;44.57;99026.75;2248396;39;20031;-81
2021/06/20 00:46:34;;;;;;;9.30;5.72;;;;;;;27.86;44.78;99020.72;2247244;39;20031;-79
2021/06/20 00:48:05;;;;;;;8.25;5.30;;;;;;;27.86;45.12;99027.06;2247639;39;20034;-80
2021/06/20 00:49:37;;;;;;;11.57;5.85;;;;;;;27.87;45.10;99039.66;2247040;39;20042;-79
2021/06/20 00:51:09;;;;;;;13.63;6.18;;;;;;;27.81;45.18;99038.06;2246649;39;20132;-80
2021/06/20 00:52:41;;;;;;;8.35;5.38;;;;;;;27.74;45.68;99047.69;2249466;39;20510;-81
2021/06/20 00:54:13;;;;;;;11.00;5.78;;;;;;;27.63;46.09;99044.19;2247085;39;20035;-80
2021/06/20 00:55:49;;;;;;;11.55;6.00;;;;;;;27.56;46.32;99049.97;2248773;39;20034;-80
2021/06/20 00:57:21;;;;;;;10.57;5.80;;;;;;;27.54;46.27;99057.66;2246731;39;20419;-82
2021/06/20 00:59:01;;;;;;;10.60;5.97;;;;;;;27.54;46.63;99042.03;2248535;39;20237;-80
2021/06/20 01:00:35;;;;;;;;;;;;;;;27.47;46.50;99052.50;2245474;39;20095;-79
2021/06/20 01:02:07;;;;;;;8.13;5.65;;;;;;;27.46;46.98;99050.88;2249031;39;19939;-80
2021/06/20 01:03:39;;;;;;;10.40;5.90;;;;;;;27.43;46.98;99054.16;2248437;39;20053;-80
2021/06/20 01:05:10;;;;;;;9.60;6.13;;;;;;;27.40;47.18;99050.03;2248970;39;20043;-80
2021/06/20 01:06:42;;;;;;;8.68;5.88;;;;;;;27.35;47.17;99052.78;2248252;39;20023;-80
2021/06/20 01:08:15;;;;;;;11.82;6.35;;;;;;;27.36;47.24;99056.34;2247546;39;20042;-79
2021/06/20 01:09:47;;;;;;;9.00;6.35;;;;;;;27.34;47.38;99047.59;2247585;39;20047;-80
2021/06/20 01:11:19;;;;;;;8.70;6.07;;;;;;;27.38;47.31;99051.41;2248239;39;20108;-81
2021/06/20 01:12:51;;;;;;;11.02;6.53;;;;;;;27.38;47.28;99051.41;2248537;39;20046;-80
2021/06/20 01:14:22;;;;;;;10.20;6.47;;;;;;;27.35;47.46;99055.53;2246930;39;20023;-81
2021/06/20 01:15:54;;;;;;;9.55;6.35;;;;;;;27.36;47.69;99059.09;2247677;39;20077;-79
2021/06/20 01:17:26;;;;;;;10.25;6.85;;;;;;;27.34;47.60;99058.56;2247953;39;20032;-82
2021/06/20 01:18:58;;;;;;;9.25;6.35;;;;;;;27.32;47.73;99053.34;2248888;39;20039;-79
2021/06/20 01:20:30;;;;;;;9.65;5.72;;;;;;;27.31;47.79;99056.38;2248138;39;20354;-84
2021/06/20 01:22:15;;;;;;;10.75;6.05;;;;;;;27.28;48.18;99060.50;2248551;39;20023;-80
2021/06/20 01:23:47;;;;;;;9.57;6.32;;;;;;;27.28;47.74;99059.69;2247406;39;20031;-82
2021/06/20 01:25:21;;;;;;;10.73;6.80;;;;;;;27.28;48.20;99051.47;2249666;39;20016;-80
2021/06/20 01:26:53;;;;;;;9.63;6.25;;;;;;;27.28;48.38;99057.75;2247949;39;20035;-81
2021/06/20 01:28:27;;;;;;;10.30;6.13;;;;;;;27.29;48.38;99066.81;2249280;39;20055;-81
2021/06/20 01:30:03;;;;;;;13.55;6.78;;;;;;;27.28;48.46;99063.25;2250953;39;20027;-82
2021/06/20 01:31:35;;;;;;;12.77;7.00;;;;;;;27.29;48.44;99061.34;2250487;39;20155;-82
2021/06/20 01:33:09;;;;;;;14.32;6.78;;;;;;;27.31;48.56;99065.44;2250470;39;20035;-81
2021/06/20 01:34:40;;;;;;;11.27;7.10;;;;;;;27.27;48.45;99069.00;2244480;39;20120;-80
2021/06/20 01:36:13;;;;;;;10.98;6.18;;;;;;;27.25;48.74;99070.09;2249007;39;20040;-81
2021/06/20 01:37:46;;;;;;;14.23;6.85;;;;;;;27.24;48.62;99087.66;2247845;39;20031;-80
2021/06/20 01:39:18;;;;;;;9.95;6.07;;;;;;;27.23;48.82;99085.22;2249317;39;20442;-80
2021/06/20 01:40:49;;;;;;;11.50;6.60;;;;;;;27.21;48.71;99085.47;2246926;39;20028;-80
2021/06/20 01:42:21;;;;;;;9.35;6.00;;;;;;;27.23;48.82;99096.19;2247683;39;20050;-78
2021/06/20 01:43:53;;;;;;;14.40;7.32;;;;;;;27.20;49.05;99092.09;2244070;39;20027;-80
2021/06/20 01:45:27;;;;;;;10.68;6.53;;;;;;;27.19;48.91;99092.34;2246070;39;20059;-78
2021/06/20 01:46:57;;;;;;;9.98;6.15;;;;;;;27.18;48.91;99094.28;2246833;39;20023;-81
2021/06/20 01:48:29;;;;;;;11.05;7.13;;;;;;;27.19;49.28;99100.56;2242452;39;20047;-78
2021/06/20 01:50:04;;;;;;;10.20;6.53;;;;;;;27.15;49.33;99100.31;2240796;39;20051;-78
2021/06/20 01:51:36;;;;;;;13.20;6.10;;;;;;;27.15;49.42;99121.44;2243975;39;20407;-79
2021/06/20 01:53:11;;;;;;;10.25;6.25;;;;;;;27.14;49.62;99126.09;2246394;39;20047;-78
2021/06/20 01:54:50;;;;;;;7.47;6.28;;;;;;;27.15;49.70;99126.94;2244958;39;21343;-78
2021/06/20 01:56:21;;;;;;;10.50;6.72;;;;;;;27.16;49.80;99139.53;2247074;39;20102;-78
2021/06/20 01:57:56;;;;;;;11.25;7.00;;;;;;;27.17;49.53;99142.00;2245017;39;20134;-80
2021/06/20 01:59:30;;;;;;;12.63;6.97;;;;;;;27.14;50.03;99139.81;2246799;39;20035;-80
2021/06/20 02:01:02;;;;;;;10.77;6.63;;;;;;;27.11;50.04;99151.34;2246512;39;20293;-79
2021/06/20 02:02:33;;;;;;;8.80;6.57;;;;;;;27.11;49.95;99154.09;2247207;39;20036;-79
2021/06/20 02:04:05;;;;;;;11.40;6.75;;;;;;;27.12;50.05;99158.44;2246186;39;20049;-79
2021/06/20 02:05:38;;;;;;;9.98;6.43;;;;;;;27.14;50.20;99166.41;2247175;39;20043;-81
2021/06/20 02:07:09;;;;;;;10.63;7.20;;;;;;;27.09;50.43;99159.03;2246726;39;20307;-80
2021/06/20 02:08:42;;;;;;;24.35;7.55;;;;;;;27.12;50.41;99163.94;2243611;39;20047;-80
2021/06/20 02:10:14;;;;;;;16.45;7.38;;;;;;;27.14;50.35;99175.47;2244601;39;20449;-81
2021/06/20 02:11:45;;;;;;;19.25;7.53;;;;;;;27.15;50.33;99174.34;2247008;39;20035;-80
2021/06/20 02:13:17;;;;;;;24.25;7.63;;;;;;;27.19;50.46;99174.63;2248528;39;20304;-79
2021/06/20 02:14:48;;;;;;;21.38;7.05;;;;;;;27.18;50.14;99168.34;2246959;39;20566;-79
2021/06/20 02:16:20;;;;;;;26.52;7.47;;;;;;;27.22;50.43;99182.31;2242364;39;20055;-82
2021/06/20 02:17:52;;;;;;;22.17;7.25;;;;;;;27.21;50.58;99181.47;2246197;39;20326;-81
2021/06/20 02:19:23;;;;;;;25.52;7.72;;;;;;;27.24;50.52;99182.88;2242906;39;20030;-81
2021/06/20 02:20:55;;;;;;;25.85;7.47;;;;;;;27.25;50.46;99188.06;2243990;39;20050;-83
2021/06/20 02:22:28;;;;;;;24.17;6.85;;;;;;;27.27;50.52;99189.72;2248283;39;20053;-81
2021/06/20 02:24:01;;;;;;;27.10;8.27;;;;;;;27.23;50.90;99178.47;2250474;39;20020;-81
2021/06/20 02:25:33;;;;;;;21.90;7.47;;;;;;;27.19;51.34;99182.84;2248588;39;20038;-79
2021/06/20 02:27:05;;;;;;;23.75;7.95;;;;;;;27.15;51.84;99181.78;2244694;39;20046;-80
2021/06/20 02:28:37;;;;;;;32.75;7.68;;;;;;;27.12;51.91;99183.13;2245162;39;20028;-81
2021/06/20 02:30:09;;;;;;;26.05;7.95;;;;;;;27.08;52.22;99193.03;2242164;39;20032;-81
2021/06/20 02:31:41;;;;;;;19.35;7.53;;;;;;;27.05;52.10;99194.41;2246294;39;20388;-82
2021/06/20 02:33:14;;;;;;;25.17;6.70;;;;;;;26.99;52.32;99205.63;2249349;39;20039;-81
2021/06/20 02:34:47;;;;;;;25.58;7.40;;;;;;;26.89;53.07;99211.94;2250048;39;20065;-83
2021/06/20 02:36:18;;;;;;;25.50;7.00;;;;;;;26.84;52.89;99217.41;2243380;39;20031;-82
2021/06/20 02:37:52;;;;;;;19.83;8.25;;;;;;;26.81;53.43;99224.28;2244198;39;20423;-81
2021/06/20 02:39:25;;;;;;;26.95;6.95;;;;;;;26.78;53.62;99213.84;2243800;39;20042;-82
2021/06/20 02:40:56;;;;;;;25.95;8.15;;;;;;;26.74;53.47;99218.19;2242950;39;20458;-80
2021/06/20 02:42:28;;;;;;;24.10;7.28;;;;;;;26.73;53.66;99231.06;2243363;39;20031;-81
2021/06/20 02:44:00;;;;;;;21.80;7.30;;;;;;;26.72;53.85;99228.63;2243700;39;20044;-83
2021/06/20 02:45:32;;;;;;;19.90;6.53;;;;;;;26.70;54.10;99231.63;2249185;39;20057;-80
2021/06/20 02:47:04;;;;;;;25.83;7.85;;;;;;;26.65;54.13;99233.53;2250025;39;20073;-84
2021/06/20 02:48:35;;;;;;;22.10;6.85;;;;;;;26.60;54.31;99226.94;2249706;39;20132;-83
2021/06/20 02:50:09;;;;;;;17.20;6.90;;;;;;;26.61;54.08;99223.13;2250058;39;20058;-81
2021/06/20 02:51:44;;;;;;;23.80;6.55;;;;;;;26.55;54.41;99228.84;2246103;39;20032;-80
2021/06/20 02:53:15;;;;;;;20.33;6.38;;;;;;;26.54;54.20;99238.16;2247774;39;20050;-81
2021/06/20 02:54:51;;;;;;;27.42;7.70;;;;;;;26.52;54.07;99237.59;2245072;39;20038;-80
2021/06/20 02:56:22;;;;;;;23.15;6.35;;;;;;;26.49;53.82;99241.72;2248162;39;20043;-82
2021/06/20 02:57:54;;;;;;;27.00;7.30;;;;;;;26.47;53.63;99250.22;2247057;39;20040;-80
2021/06/20 02:59:25;;;;;;;17.10;5.72;;;;;;;26.43;53.83;99245.53;2242955;39;20035;-80
2021/06/20 03:00:57;;;;;;;20.65;5.50;;;;;;;26.44;53.33;99247.19;2241549;39;20032;-82
2021/06/20 03:02:28;;;;;;;25.52;6.00;;;;;;;26.41;53.50;99253.19;2248394;39;20031;-81
2021/06/20 03:04:00;;;;;;;19.42;5.85;;;;;;;26.38;53.29;99245.50;2249126;39;20027;-81
2021/06/20 03:05:32;;;;;;;21.38;6.13;;;;;;;26.38;53.01;99242.78;2248471;39;20035;-82
2021/06/20 03:07:03;;;;;;;28.58;5.72;;;;;;;26.37;53.11;99239.22;2242477;39;20038;-83
2021/06/20 03:08:35;;;;;;;19.92;5.70;;;;;;;26.34;53.28;99234.28;2245894;39;20035;-80
2021/06/20 03:10:09;;;;;;;18.27;4.88;;;;;;;26.35;53.37;99235.13;2246890;39;20068;-83
2021/06/20 03:11:43;;;;;;;21.20;5.95;;;;;;;26.35;53.22;99238.66;2248044;39;20108;-81
2021/06/20 03:13:15;;;;;;;19.25;5.25;;;;;;;26.35;53.04;99235.13;2245804;39;20055;-82
2021/06/20 03:14:48;;;;;;;14.48;4.97;;;;;;;26.32;53.14;99236.44;2246027;39;20058;-78
2021/06/20 03:16:20;;;;;;;13.20;4.10;;;;;;;26.35;53.00;99226.91;2247485;39;20055;-80
2021/06/20 03:17:52;;;;;;;21.08;5.38;;;;;;;26.37;53.06;99239.22;2247873;39;20023;-83
2021/06/20 03:19:24;;;;;;;16.52;4.75;;;;;;;26.34;52.74;99238.94;2248010;39;20355;-82
2021/06/20 03:20:56;;;;;;;16.58;5.10;;;;;;;26.30;52.91;99236.72;2243158;39;20040;-84
2021/06/20 03:22:27;;;;;;;12.52;4.65;;;;;;;26.30;52.63;99234.00;2245542;39;20023;-82
2021/06/20 03:23:59;;;;;;;20.67;4.85;;;;;;;26.30;52.75;99228.50;2245623;39;20016;-79
2021/06/20 03:25:33;;;;;;;19.45;6.28;;;;;;;26.29;52.64;99226.88;2244848;39;20047;-82
2021/06/20 03:27:04;;;;;;;15.48;4.63;;;;;;;26.29;52.88;99226.06;2248879;39;20047;-81
2021/06/20 03:28:37;;;;;;;16.60;4.80;;;;;;;26.21;52.74;99235.59;2248433;39;20027;-82
2021/06/20 03:30:10;;;;;;;13.80;4.75;;;;;;;26.15;53.07;99239.44;2243543;39;20043;-84
2021/06/20 03:31:41;;;;;;;17.30;4.72;;;;;;;26.13;52.87;99249.81;2252446;39;20047;-82
2021/06/20 03:33:13;;;;;;;16.35;5.00;;;;;;;26.11;52.91;99252.84;2245942;39;20039;-83
2021/06/20 03:34:46;;;;;;;11.50;3.58;;;;;;;26.09;53.12;99259.66;2245570;39;20051;-83
2021/06/20 03:36:18;;;;;;;20.52;5.00;;;;;;;26.10;52.78;99267.63;2245071;39;20043;-83
2021/06/20 03:37:50;;;;;;;16.17;5.07;;;;;;;26.13;52.65;99263.50;2245996;39;20098;-83
2021/06/20 03:39:22;;;;;;;18.60;4.72;;;;;;;26.10;52.23;99264.03;2249569;39;20030;-84
2021/06/20 03:40:55;;;;;;;14.80;4.05;;;;;;;26.06;52.02;99260.16;2249151;39;20091;-78
2021/06/20 03:42:27;;;;;;;24.00;4.80;;;;;;;25.98;51.70;99256.81;2246969;39;20324;-82
2021/06/20 03:43:58;;;;;;;12.90;4.03;;;;;;;25.95;51.90;99259.28;2247480;39;20031;-79
2021/06/20 03:45:32;;;;;;;15.60;4.30;;;;;;;25.90;51.95;99283.91;2245735;39;20073;-83
2021/06/20 03:47:04;;;;;;;14.55;3.60;;;;;;;25.87;52.25;99285.25;2248018;39;20031;-81
2021/06/20 03:48:37;;;;;;;12.60;4.22;;;;;;;25.86;51.90;99283.59;2246598;39;20027;-83
2021/06/20 03:50:10;;;;;;;17.02;4.55;;;;;;;25.90;51.79;99276.50;2246885;39;20319;-83
2021/06/20 03:51:43;;;;;;;15.43;4.15;;;;;;;25.90;51.77;99287.44;2247386;39;20112;-81
2021/06/20 03:53:15;;;;;;;17.27;4.22;;;;;;;25.92;51.66;99276.25;2247214;39;20036;-82
2021/06/20 03:54:50;;;;;;;15.65;4.32;;;;;;;25.92;51.52;99282.53;2247744;39;20023;-81
2021/06/20 03:56:23;;;;;;;11.63;3.40;;;;;;;25.92;51.52;99288.00;2245953;39;20032;-81
2021/06/20 03:57:55;;;;;;;9.32;3.92;;;;;;;25.93;51.72;99295.13;2247430;39;20035;-80
2021/06/20 03:59:29;;;;;;;16.67;4.43;;;;;;;25.94;51.54;99298.69;2246496;39;20027;-80
2021/06/20 04:01:01;;;;;;;14.93;4.00;;;;;;;25.90;51.90;99295.66;2240982;39;20039;-82
2021/06/20 04:02:33;;;;;;;12.43;4.35;;;;;;;25.88;51.85;99289.66;2244771;39;20044;-81
2021/06/20 04:04:05;;;;;;;14.23;4.18;;;;;;;25.85;51.93;99288.25;2245359;39;20036;-82
2021/06/20 04:05:37;;;;;;;13.45;4.00;;;;;;;25.81;51.80;99294.50;2244242;39;20067;-81
2021/06/20 04:07:11;;;;;;;17.60;4.53;;;;;;;25.82;52.34;99293.41;2242659;39;20399;-79
2021/06/20 04:08:43;;;;;;;18.75;4.45;;;;;;;25.80;52.09;99284.66;2245254;39;20101;-81
2021/06/20 04:10:15;;;;;;;15.40;4.40;;;;;;;25.84;51.98;99286.59;2242283;39;20040;-81
2021/06/20 04:11:48;;;;;;;10.63;3.42;;;;;;;25.85;52.15;99287.44;2242360;39;20034;-81
2021/06/20 04:13:20;;;;;;;13.02;3.40;;;;;;;25.86;52.00;99294.56;2245930;39;20035;-80
2021/06/20 04:14:52;;;;;;;14.13;4.25;;;;;;;25.91;51.98;99286.34;2246769;39;20051;-80
2021/06/20 04:16:24;;;;;;;14.52;3.72;;;;;;;25.97;51.66;99295.44;2244855;39;20051;-80
2021/06/20 04:17:56;;;;;;;16.73;3.50;;;;;;;25.99;51.77;99288.59;2247811;39;20399;-81
2021/06/20 04:19:27;;;;;;;10.73;3.95;;;;;;;25.98;51.66;99292.41;2248840;39;20058;-82
2021/06/20 04:20:59;;;;;;;8.75;3.10;;;;;;;26.04;51.86;99287.78;2248736;39;20568;-79
2021/06/20 04:22:32;;;;;;;12.02;3.83;;;;;;;26.06;51.72;99287.56;2245186;39;20629;-77
2021/06/20 04:24:05;;;;;;;11.25;3.67;;;;;;;26.09;51.59;99287.03;2243453;39;20032;-80
2021/06/20 04:25:37;;;;;;;12.05;3.83;;;;;;;26.14;51.76;99287.88;2243540;39;20047;-82
2021/06/20 04:27:10;;;;;;;15.57;3.75;;;;;;;26.10;51.69;99288.69;2247508;39;20038;-81
2021/06/20 04:28:43;;;;;;;11.05;3.90;;;;;;;26.07;51.58;99297.41;2247790;39;20024;-79
2021/06/20 04:30:16;;;;;;;12.07;3.30;;;;;;;26.06;51.70;99298.50;2246589;39;20043;-79
2021/06/20 04:31:48;;;;;;;19.83;4.82;;;;;;;26.08;51.85;99293.56;2247737;39;20419;-83
2021/06/20 04:33:20;;;;;;;17.48;4.20;;;;;;;26.09;51.35;99295.25;2244494;39;20028;-81
2021/06/20 04:34:52;;;;;;;13.60;3.58;;;;;;;26.08;51.69;99301.78;2245155;39;20031;-80
2021/06/20 04:36:24;;;;;;;12.95;4.82;;;;;;;26.08;51.79;99308.09;2247087;39;20055;-81
2021/06/20 04:37:56;;;;;;;9.93;3.45;;;;;;;26.08;51.70;99308.09;2247755;39;20050;-81
2021/06/20 04:39:27;;;;;;;9.40;4.20;;;;;;;26.11;51.96;99306.75;2248002;39;20024;-82
2021/06/20 04:41:04;;;;;;;8.15;3.55;;;;;;;26.11;51.91;99307.59;2246006;39;20323;-80
2021/06/20 04:42:38;;;;;;;11.98;3.97;;;;;;;26.13;51.89;99293.63;2246675;39;20051;-81
2021/06/20 04:45:56;;;;;;;11.18;3.90;;;;;;;26.14;51.55;99289.81;2245786;39;20047;-80
2021/06/20 04:47:29;;;;;;;12.77;4.13;;;;;;;26.18;51.86;99296.38;2243243;39;20209;-79
2021/06/20 04:49:03;;;;;;;15.88;4.35;;;;;;;26.20;51.79;99293.41;2243807;39;20047;-81
2021/06/20 04:50:35;;;;;;;10.95;3.80;;;;;;;26.17;52.04;99294.72;2247651;39;20051;-81
2021/06/20 04:52:08;;;;;;;15.50;4.45;;;;;;;26.18;51.77;99301.03;2248668;39;20031;-82
2021/06/20 04:53:40;;;;;;;10.45;3.58;;;;;;;26.17;51.67;99292.00;2245643;39;20028;-81
2021/06/20 04:55:14;;;;;;;10.20;3.40;;;;;;;26.17;51.92;99297.47;2244720;39;20047;-80
2021/06/20 04:56:46;;;;;;;11.68;4.00;;;;;;;26.10;51.90;99311.44;2247526;39;20053;-84
2021/06/20 04:58:19;;;;;;;14.45;4.63;;;;;;;26.03;51.97;99305.31;2247487;39;20102;-83
2021/06/20 04:59:53;;;;;;;11.32;4.35;;;;;;;25.91;52.57;99319.22;2244332;39;20078;-80
2021/06/20 05:01:26;;;;;;;10.68;3.85;;;;;;;25.86;52.91;99313.72;2246058;39;20503;-79
2021/06/20 05:02:58;;;;;;;12.07;4.60;;;;;;;25.83;52.69;99316.97;2246516;39;20043;-80
2021/06/20 05:04:29;;;;;;;10.23;4.20;;;;;;;25.89;52.82;99304.94;2245971;39;20537;-79
2021/06/20 05:06:01;;;;;;;10.40;3.90;;;;;;;25.95;52.70;99306.66;2242362;39;20035;-80
2021/06/20 05:07:33;;;;;;;18.55;4.40;;;;;;;25.94;52.76;99306.91;2244954;39;20038;-81
2021/06/20 05:09:06;;;;;;;11.95;3.53;;;;;;;25.93;52.84;99288.84;2247356;39;20051;-80
2021/06/20 05:10:38;;;;;;;11.70;4.03;;;;;;;25.84;53.11;99297.53;2245330;39;20440;-78
2021/06/20 05:12:10;;;;;;;12.55;4.28;;;;;;;25.87;53.21;99285.25;2245833;39;20043;-84
2021/06/20 05:13:44;;;;;;;13.05;3.42;;;;;;;25.82;52.91;99285.22;2242873;39;20384;-78
2021/06/20 05:15:16;;;;;;;15.50;3.88;;;;;;;25.83;53.05;99300.53;2241255;39;20382;-80
2021/06/20 05:16:47;;;;;;;12.60;3.88;;;;;;;25.78;53.09;99298.59;2246761;39;20035;-81
2021/06/20 05:18:20;;;;;;;13.10;4.10;;;;;;;25.82;53.11;99293.41;2246034;39;20035;-79
2021/06/20 05:19:51;;;;;;;14.40;3.83;;;;;;;25.81;53.02;99287.13;2244229;39;20047;-80
2021/06/20 05:21:23;;;;;;;13.95;4.10;;;;;;;25.90;52.91;99292.91;2246291;39;20050;-80
2021/06/20 05:22:55;;;;;;;9.40;3.53;;;;;;;25.99;52.59;99296.81;2246125;39;20787;-82
2021/06/20 05:24:28;;;;;;;8.07;3.35;;;;;;;26.07;52.33;99300.97;2245992;39;20061;-80
2021/06/20 05:25:59;;;;;;;7.05;2.97;;;;;;;26.12;52.18;99308.41;2244998;39;20067;-77
2021/06/20 05:27:31;;;;;;;15.52;3.22;;;;;;;26.16;52.05;99304.06;2245550;39;20042;-78
2021/06/20 05:29:05;;;;;;;13.73;3.78;;;;;;;26.20;52.12;99304.34;2246886;39;20055;-79
2021/06/20 05:30:37;;;;;;;12.48;4.03;;;;;;;26.19;52.07;99308.19;2245920;39;20035;-80
2021/06/20 05:32:09;;;;;;;14.57;3.92;;;;;;;26.12;51.96;99319.38;2247252;39;20054;-79
2021/06/20 05:33:41;;;;;;;10.52;2.95;;;;;;;26.12;51.91;99316.63;2243694;39;20032;-79
2021/06/20 05:35:12;;;;;;;15.05;3.30;;;;;;;26.07;52.22;99320.13;2246885;39;20042;-81
2021/06/20 05:36:44;;;;;;;11.07;3.55;;;;;;;26.06;52.33;99328.63;2245390;39;20043;-79
2021/06/20 05:38:17;;;;;;;15.70;3.97;;;;;;;26.13;52.07;99337.44;2240665;39;20051;-78
2021/06/20 05:39:48;;;;;;;8.57;3.08;;;;;;;26.16;51.87;99334.19;2243119;39;20034;-79
2021/06/20 05:41:20;;;;;;;10.55;3.40;;;;;;;26.20;51.47;99337.22;2245933;39;20339;-78
2021/06/20 05:42:51;;;;;;;9.60;3.33;;;;;;;26.22;51.54;99343.22;2244984;39;20323;-79
2021/06/20 05:44:25;;;;;;;10.00;3.55;;;;;;;26.13;51.24;99343.72;2244790;39;20040;-78
2021/06/20 05:45:56;;;;;;;11.13;2.90;;;;;;;26.00;51.16;99347.75;2247023;39;20032;-79
2021/06/20 05:47:28;;;;;;;11.80;3.95;;;;;;;25.91;50.74;99346.59;2246501;39;20059;-80
2021/06/20 05:49:00;;;;;;;7.78;2.10;;;;;;;25.86;49.85;99354.78;2246329;39;20051;-80
2021/06/20 05:50:32;;;;;;;8.48;3.05;;;;;;;25.85;49.52;99355.84;2246814;39;20051;-80
2021/06/20 05:52:04;;;;;;;10.02;3.22;;;;;;;25.87;48.93;99361.91;2240330;39;20303;-78
2021/06/20 05:53:36;;;;;;;10.10;2.53;;;;;;;25.89;48.80;99358.88;2245006;39;20063;-77
2021/06/20 05:55:07;;;;;;;7.53;2.45;;;;;;;25.88;48.66;99371.78;2246891;39;20222;-78
2021/06/20 05:56:39;;;;;;;6.70;1.98;;;;;;;25.87;48.36;99372.84;2245901;39;20427;-79
2021/06/20 05:58:11;;;;;;;7.90;2.03;;;;;;;25.88;48.40;99379.97;2241694;39;20454;-80
2021/06/20 05:59:45;;;;;;;9.68;2.35;;;;;;;25.90;47.93;99369.56;2240841;39;20051;-79
2021/06/20 06:01:16;;;;;;;8.68;2.88;;;;;;;25.94;47.90;99369.88;2242245;39;20051;-80
2021/06/20 06:02:49;;;;;;;8.60;2.28;;;;;;;25.93;47.96;99363.56;2244245;39;20546;-82
2021/06/20 06:04:19;;;;;;;7.45;2.40;;;;;;;25.89;47.78;99365.19;2246549;39;20038;-81
2021/06/20 06:05:51;;;;;;;10.63;2.70;;;;;;;25.80;47.88;99364.00;2247017;39;20043;-81
2021/06/20 06:07:23;;;;;;;11.23;2.30;;;;;;;25.79;48.05;99367.88;2245926;39;20529;-79
2021/06/20 06:08:56;;;;;;;9.02;2.22;;;;;;;25.78;48.11;99358.81;2245095;39;20039;-81
2021/06/20 06:10:29;;;;;;;8.80;2.20;;;;;;;25.72;48.17;99362.63;2243688;39;20043;-81
2021/06/20 06:12:01;;;;;;;6.30;2.00;;;;;;;25.70;48.10;99353.84;2240430;39;20102;-80
2021/06/20 06:13:33;;;;;;;10.10;2.45;;;;;;;25.76;48.24;99354.69;2242731;39;20418;-78
2021/06/20 06:15:07;;;;;;;9.50;3.40;;;;;;;25.90;47.93;99352.34;2245712;39;20027;-79
2021/06/20 06:16:38;;;;;;;8.43;2.20;;;;;;;25.85;47.72;99350.38;2247457;39;21238;-79
2021/06/20 06:18:10;;;;;;;7.97;2.33;;;;;;;25.87;47.72;99344.63;2246354;39;20053;-78
2021/06/20 06:19:41;;;;;;;5.93;2.08;;;;;;;25.96;47.76;99343.06;2246180;39;20055;-78
2021/06/20 06:21:13;;;;;;;5.00;2.22;;;;;;;26.06;47.31;99343.13;2245289;39;20023;-79
2021/06/20 06:22:46;;;;;;;9.40;2.58;;;;;;;26.05;47.19;99349.69;2247170;39;20054;-79
2021/06/20 06:24:18;;;;;;;5.80;1.90;;;;;;;25.94;47.04;99343.34;2245902;39;20042;-80
2021/06/20 06:25:49;;;;;;;5.43;1.92;;;;;;;25.88;47.29;99344.41;2246819;39;20038;-79
2021/06/20 06:27:22;;;;;;;6.07;2.10;;;;;;;25.81;47.44;99357.47;2244997;39;20031;-82
2021/06/20 06:28:54;;;;;;;6.35;1.95;;;;;;;25.78;47.78;99368.94;2239823;39;20035;-79
2021/06/20 06:30:27;;;;;;;9.82;2.35;;;;;;;25.80;47.53;99362.13;2243735;39;20039;-79
2021/06/20 06:31:58;;;;;;;8.13;2.17;;;;;;;25.84;47.72;99367.91;2245594;39;20032;-81
2021/06/20 06:33:30;;;;;;;6.15;2.00;;;;;;;25.83;47.73;99366.25;2242442;39;20031;-80
2021/06/20 06:35:01;;;;;;;8.20;2.30;;;;;;;25.93;47.68;99360.84;2241599;39;20116;-80
2021/06/20 06:36:33;;;;;;;6.13;2.10;;;;;;;26.02;47.41;99355.72;2240195;39;20607;-80
2021/06/20 06:38:05;;;;;;;5.90;2.00;;;;;;;25.99;47.19;99354.31;2245791;39;20023;-80
2021/06/20 06:39:36;;;;;;;5.45;2.08;;;;;;;25.96;47.57;99357.59;2247101;39;20032;-81
2021/06/20 06:41:08;;;;;;;7.75;2.40;;;;;;;25.90;47.29;99358.63;2243375;39;20047;-80
2021/06/20 06:42:40;;;;;;;7.78;2.40;;;;;;;26.00;47.48;99361.44;2241711;39;20036;-80
2021/06/20 06:44:12;;;;;;;5.60;1.95;;;;;;;26.11;46.90;99369.75;2243539;39;20027;-80
2021/06/20 06:45:45;;;;;;;7.25;2.13;;;;;;;26.11;46.71;99369.75;2247252;39;20039;-81
2021/06/20 06:47:16;;;;;;;8.93;2.22;;;;;;;26.09;46.59;99372.75;2246256;39;20042;-81
2021/06/20 06:48:48;;;;;;;7.65;2.42;;;;;;;26.18;46.60;99377.72;2247366;39;20035;-79
2021/06/20 06:50:20;;;;;;;6.35;2.25;;;;;;;26.28;46.25;99386.00;2245747;39;20035;-80
2021/06/20 06:51:51;;;;;;;7.05;2.78;;;;;;;26.34;46.69;99386.88;2246529;39;20055;-80
2021/06/20 06:53:23;;;;;;;7.38;2.38;;;;;;;26.41;46.59;99382.78;2244168;39;20023;-79
2021/06/20 06:54:55;;;;;;;4.75;1.73;;;;;;;26.51;46.71;99381.19;2249401;39;20354;-83
2021/06/20 06:56:27;;;;;;;8.43;2.00;;;;;;;26.61;46.37;99382.06;2248037;39;20027;-79
2021/06/20 06:58:01;;;;;;;8.18;2.20;;;;;;;26.62;46.30;99377.41;2247992;39;20047;-80
2021/06/20 06:59:33;;;;;;;8.20;2.35;;;;;;;26.69;46.09;99388.94;2243120;39;20078;-80
2021/06/20 07:01:07;;;;;;;9.57;2.30;;;;;;;26.73;46.24;99395.53;2243665;39;20028;-79
2021/06/20 07:02:39;;;;;;;7.45;3.22;;;;;;;26.77;45.86;99390.38;2242672;39;20012;-80
2021/06/20 07:04:19;;;;;;;8.88;2.25;;;;;;;26.81;46.00;99386.00;2245323;39;20038;-82
2021/06/20 07:05:53;;;;;;;5.35;2.10;;;;;;;26.74;46.43;99377.16;2242324;39;20084;-81
2021/06/20 07:07:25;;;;;;;7.75;2.00;;;;;;;26.72;45.92;99371.16;2246428;39;20057;-81
2021/06/20 07:08:57;;;;;;;5.72;2.03;;;;;;;26.75;45.99;99376.06;2253307;39;20018;-82
2021/06/20 07:10:29;;;;;;;6.18;2.13;;;;;;;26.63;45.80;99374.41;2253513;39;20019;-83
2021/06/20 07:12:01;;;;;;;9.27;2.83;;;;;;;26.49;45.65;99367.75;2251303;39;20035;-82
2021/06/20 07:13:33;;;;;;;5.88;2.05;;;;;;;26.35;45.94;99377.56;2253253;39;20030;-79